Time;durP1;ratioP1;P1;durP2;ratioP2;P2;SDS_P1;SDS_P2;PMS_P1;PMS_P2;Temp;Humidity;BMP_temperature;BMP_pressure;BME280_temperature;BME280_humidity;BME280_pressure;Samples;Min_cycle;Max_cycle;Signal;HPM_P1;HPM_P2
2023/10/11 00:01:19;;;;;;;;;;;;;;;22.71;47.58;101775.53;7387998;19;1443;-41
2023/10/11 00:03:52;;;;;;;;;;;;;;;22.72;47.60;101777.22;7392774;19;1737;-41
2023/10/11 00:06:24;;;;;;;;;;;;;;;22.68;47.74;101787.44;7393774;19;1380;-41
2023/10/11 00:08:53;;;;;;;;;;;;;;;22.67;47.63;101790.28;7391990;19;1953;-42
2023/10/11 00:11:24;;;;;;;;;;;;;;;22.72;47.70;101799.66;7391816;19;1480;-41
2023/10/11 00:13:53;;;;;;;;;;;;;;;22.74;47.55;101796.81;7392702;19;1474;-41
2023/10/11 00:16:22;;;;;;;;;;;;;;;22.70;47.60;101798.94;7391681;19;1571;-41
2023/10/11 00:18:55;;;;;;;;;;;;;;;22.63;47.51;101757.34;7392154;19;1479;-41
2023/10/11 00:21:40;;;;;;;;;;;;;;;22.65;47.63;101776.91;7392160;19;1482;-41
2023/10/11 00:24:09;;;;;;;;;;;;;;;22.61;47.72;101787.13;7392638;19;1441;-41
2023/10/11 00:26:40;;;;;;;;;;;;;;;22.63;47.71;101790.53;7391552;19;1477;-41
2023/10/11 00:29:09;;;;;;;;;;;;;;;22.63;47.70;101795.91;7392916;19;1873;-41
2023/10/11 00:31:38;;;;;;;;;;;;;;;22.64;47.78;101791.38;7390587;19;1758;-41
2023/10/11 00:34:10;;;;;;;;;;;;;;;22.66;47.90;101788.56;7375921;19;1500;-41
2023/10/11 00:36:45;;;;;;;;;;;;;;;22.63;47.70;101801.31;7391347;19;1487;-41
2023/10/11 00:39:16;;;;;;;;;;;;;;;22.62;48.01;101799.63;7391124;19;1561;-41
2023/10/11 00:41:48;;;;;;;;;;;;;;;22.61;47.99;101797.91;7391294;19;1511;-41
2023/10/11 00:44:20;;;;;;;;;;;;;;;22.62;47.94;101798.75;7392050;19;1561;-41
2023/10/11 00:46:57;;;;;;;;;;;;;;;22.66;47.63;101793.94;7389250;19;2016;-41
2023/10/11 00:49:34;;;;;;;;;;;;;;;22.62;47.92;101799.63;7390982;19;1863;-42
2023/10/11 00:52:06;;;;;;;;;;;;;;;22.63;47.77;101790.53;7391997;19;1475;-41
2023/10/11 00:54:35;;;;;;;;;;;;;;;22.63;47.93;101805.88;7393755;19;1451;-42
2023/10/11 00:57:03;;;;;;;;;;;;;;;22.40;48.07;101751.25;7389929;19;1471;-48
2023/10/11 00:59:32;;;;;;;;;;;;;;;22.59;47.99;101797.19;7390799;19;1689;-41
2023/10/11 01:02:01;;;;;;;;;;;;;;;22.57;47.82;101788.38;7390807;19;1466;-41
2023/10/11 01:04:38;;;;;;;;;;;;;;;22.62;47.68;101787.97;7392031;19;1554;-41
2023/10/11 01:07:09;;;;;;;;;;;;;;;22.60;47.75;101790.81;7390557;19;1674;-41
2023/10/11 01:09:37;;;;;;;;;;;;;;;22.67;47.78;101811.84;7389841;19;1857;-41
2023/10/11 01:12:06;;;;;;;;;;;;;;;22.64;47.64;101803.03;7390272;19;1506;-41
2023/10/11 01:14:56;;;;;;;;;;;;;;;22.61;47.73;101808.69;7389487;19;1499;-41
2023/10/11 01:17:24;;;;;;;;;;;;;;;22.65;47.78;101803.88;7387959;19;1925;-42
2023/10/11 01:19:52;;;;;;;;;;;;;;;22.61;47.67;101824.00;7388570;19;1357;-41
2023/10/11 01:22:23;;;;;;;;;;;;;;;22.66;47.50;101821.78;7388907;19;1580;-41
2023/10/11 01:24:53;;;;;;;;;;;;;;;22.66;47.61;101820.91;7390283;19;1459;-41
2023/10/11 01:27:27;;;;;;;;;;;;;;;22.64;47.76;101830.00;7389154;19;1345;-43
2023/10/11 01:29:55;;;;;;;;;;;;;;;22.63;47.62;101825.59;7387689;19;1849;-43
2023/10/11 01:32:23;;;;;;;;;;;;;;;22.58;47.86;101825.16;7375834;19;1341;-41
2023/10/11 01:34:52;;;;;;;;;;;;;;;22.65;47.76;101820.06;7390686;19;1463;-41
2023/10/11 01:37:23;;;;;;;;;;;;;;;22.63;47.72;101830.97;7390204;19;1475;-41
2023/10/11 01:39:51;;;;;;;;;;;;;;;22.59;47.94;101837.63;7389479;19;1565;-41
2023/10/11 01:42:20;;;;;;;;;;;;;;;22.57;47.68;101839.59;7390863;19;1365;-42
2023/10/11 01:44:49;;;;;;;;;;;;;;;22.58;47.88;101840.44;7396650;19;1428;-41
2023/10/11 01:47:19;;;;;;;;;;;;;;;22.58;47.73;101835.94;7396628;19;1606;-41
2023/10/11 01:49:52;;;;;;;;;;;;;;;22.61;47.84;101851.81;7395252;19;1853;-41
2023/10/11 01:52:25;;;;;;;;;;;;;;;22.60;47.74;101849.25;7397451;19;1499;-42
2023/10/11 01:54:55;;;;;;;;;;;;;;;22.57;47.88;101849.53;7394104;19;1466;-41
2023/10/11 01:57:25;;;;;;;;;;;;;;;22.56;47.95;101851.38;7395502;19;1479;-42
2023/10/11 01:59:53;;;;;;;;;;;;;;;22.59;47.67;101856.50;7396977;19;1541;-41
2023/10/11 02:02:26;;;;;;;;;;;;;;;22.61;47.74;101846.44;7393982;19;1573;-42
2023/10/11 02:04:57;;;;;;;;;;;;;;;22.56;47.95;101848.69;7391627;19;1935;-41
2023/10/11 02:07:31;;;;;;;;;;;;;;;22.58;47.76;101870.97;7395926;19;1443;-41
2023/10/11 02:09:59;;;;;;;;;;;;;;;22.61;47.61;101859.91;7395107;19;1935;-41
2023/10/11 02:12:28;;;;;;;;;;;;;;;22.59;47.81;101859.19;7395427;19;1645;-41
2023/10/11 02:14:56;;;;;;;;;;;;;;;22.60;47.59;101871.69;7395966;19;1680;-42
2023/10/11 02:17:26;;;;;;;;;;;;;;;22.51;47.94;101850.06;7394864;19;1575;-42
2023/10/11 02:19:58;;;;;;;;;;;;;;;22.53;47.99;101864.28;7395075;19;1388;-42
2023/10/11 02:22:32;;;;;;;;;;;;;;;22.54;47.82;101864.16;7391992;19;1522;-41
2023/10/11 02:25:02;;;;;;;;;;;;;;;22.54;47.88;101858.75;7395181;19;1915;-41
2023/10/11 02:27:33;;;;;;;;;;;;;;;22.55;47.65;101852.34;7395604;19;1527;-41
2023/10/11 02:30:06;;;;;;;;;;;;;;;22.56;47.89;101859.47;7395439;19;1896;-41
2023/10/11 02:32:38;;;;;;;;;;;;;;;22.53;47.75;101870.50;7380093;19;1843;-42
2023/10/11 02:35:08;;;;;;;;;;;;;;;22.53;47.95;101870.50;7394883;19;1524;-41
2023/10/11 02:37:39;;;;;;;;;;;;;;;22.55;47.88;101860.44;7394595;19;1675;-46
2023/10/11 02:40:09;;;;;;;;;;;;;;;22.59;47.63;101859.19;7394508;19;1491;-41
2023/10/11 02:42:38;;;;;;;;;;;;;;;22.52;47.83;101857.16;7393455;19;1777;-41
2023/10/11 02:45:08;;;;;;;;;;;;;;;22.53;47.80;101854.34;7394169;19;1516;-41
2023/10/11 02:47:36;;;;;;;;;;;;;;;22.53;47.79;101867.81;7393393;19;1518;-41
2023/10/11 02:50:07;;;;;;;;;;;;;;;22.54;47.92;101866.84;7390433;19;1835;-41
2023/10/11 02:52:39;;;;;;;;;;;;;;;22.54;47.72;101877.63;7394368;19;1558;-41
2023/10/11 02:55:16;;;;;;;;;;;;;;;22.55;47.54;101857.75;7393997;19;1225;-41
2023/10/11 02:57:45;;;;;;;;;;;;;;;22.50;47.67;101849.22;7394044;19;1687;-41
2023/10/11 03:00:22;;;;;;;;;;;;;;;22.58;47.48;101852.09;7392279;19;1816;-41
2023/10/11 03:02:54;;;;;;;;;;;;;;;22.55;47.63;101857.75;7393832;19;1573;-41
2023/10/11 03:05:27;;;;;;;;;;;;;;;22.55;47.67;101859.59;7394268;19;1522;-41
2023/10/11 03:07:56;;;;;;;;;;;;;;;22.49;47.43;101847.50;7393281;19;1582;-41
2023/10/11 03:10:27;;;;;;;;;;;;;;;22.45;47.78;101829.88;7393526;19;1838;-41
2023/10/11 03:12:55;;;;;;;;;;;;;;;22.45;47.78;101854.13;7394655;19;2380;-41
2023/10/11 03:15:25;;;;;;;;;;;;;;;22.47;47.66;101852.16;7392743;19;1535;-41
2023/10/11 03:17:55;;;;;;;;;;;;;;;22.48;47.66;101837.69;7392661;19;1442;-41
2023/10/11 03:20:35;;;;;;;;;;;;;;;22.50;47.64;101841.13;7393570;19;1507;-41
2023/10/11 03:23:10;;;;;;;;;;;;;;;22.50;47.70;101843.81;7392485;19;1463;-41
2023/10/11 03:25:47;;;;;;;;;;;;;;;22.48;47.65;101839.53;7395376;19;1269;-42
2023/10/11 03:28:15;;;;;;;;;;;;;;;22.44;47.74;101839.81;7394288;19;1519;-41
2023/10/11 03:30:46;;;;;;;;;;;;;;;22.46;47.75;101831.56;7392232;19;1847;-41
2023/10/11 03:33:17;;;;;;;;;;;;;;;22.50;47.55;101837.56;7379011;19;1481;-42
2023/10/11 03:35:48;;;;;;;;;;;;;;;22.46;47.71;101841.50;7394535;19;1582;-42
2023/10/11 03:38:22;;;;;;;;;;;;;;;22.35;47.98;101853.22;7392301;19;1943;-45
2023/10/11 03:41:14;;;;;;;;;;;;;;;22.51;47.97;101852.75;7393624;19;1915;-43
2023/10/11 03:43:44;;;;;;;;;;;;;;;22.51;48.08;101850.91;7390267;19;1443;-42
2023/10/11 03:46:14;;;;;;;;;;;;;;;22.59;47.76;101847.56;7390463;19;1428;-42
2023/10/11 03:48:52;;;;;;;;;;;;;;;22.58;48.01;101848.53;7390092;19;1471;-41
2023/10/11 03:51:22;;;;;;;;;;;;;;;22.38;48.49;101840.34;7388234;19;1885;-41
2023/10/11 03:53:52;;;;;;;;;;;;;;;22.55;47.97;101836.19;7388518;19;2099;-41
2023/10/11 03:56:23;;;;;;;;;;;;;;;22.62;47.74;101842.75;7389450;19;1357;-43
2023/10/11 03:58:52;;;;;;;;;;;;;;;22.55;46.96;101830.78;7390850;19;2551;-41
2023/10/11 04:01:28;;;;;;;;;;;;;;;22.37;47.02;101843.16;7391811;19;1312;-41
2023/10/11 04:03:56;;;;;;;;;;;;;;;22.34;47.23;101843.41;7394858;19;1526;-41
2023/10/11 04:06:24;;;;;;;;;;;;;;;22.44;47.06;101857.81;7393889;19;1602;-42
2023/10/11 04:08:55;;;;;;;;;;;;;;;22.39;47.17;101842.03;7392192;19;1773;-42
2023/10/11 04:11:37;;;;;;;;;;;;;;;22.35;46.80;101851.38;7392655;19;1854;-42
2023/10/11 04:14:12;;;;;;;;;;;;;;;22.35;46.81;101855.91;7393621;19;1640;-42
2023/10/11 04:16:44;;;;;;;;;;;;;;;22.33;46.85;101858.75;7392262;19;1358;-41
2023/10/11 04:19:12;;;;;;;;;;;;;;;22.33;46.58;101869.53;7393141;19;1586;-41
2023/10/11 04:21:54;;;;;;;;;;;;;;;22.34;46.46;101848.81;7393505;19;1378;-40
2023/10/11 04:24:22;;;;;;;;;;;;;;;22.40;46.45;101861.75;7390425;19;1420;-41
2023/10/11 04:26:58;;;;;;;;;;;;;;;22.29;47.13;101864.53;7390786;19;1422;-41
2023/10/11 04:29:31;;;;;;;;;;;;;;;22.20;47.26;101869.69;7394040;19;1729;-41
2023/10/11 04:32:14;;;;;;;;;;;;;;;22.26;46.06;101876.41;7392678;19;2506;-41
2023/10/11 04:34:48;;;;;;;;;;;;;;;22.24;46.52;101895.41;7379205;19;1761;-41
2023/10/11 04:37:27;;;;;;;;;;;;;;;22.17;46.58;101886.09;7393180;19;1822;-41
2023/10/11 04:39:56;;;;;;;;;;;;;;;22.22;46.22;101897.34;7392312;19;1431;-41
2023/10/11 04:42:30;;;;;;;;;;;;;;;22.36;45.94;101888.13;7393716;19;1556;-41
2023/10/11 04:44:59;;;;;;;;;;;;;;;22.43;45.98;101889.31;7393756;19;1886;-40
2023/10/11 04:47:50;;;;;;;;;;;;;;;22.42;46.13;101889.44;7393608;19;1169;-41
2023/10/11 04:50:16;;;;;;;;;;;;;;;22.43;46.19;101889.31;7391441;19;2675;-40
2023/10/11 04:52:48;;;;;;;;;;;;;;;22.48;46.14;101897.00;7390914;19;1841;-40
2023/10/11 04:55:16;;;;;;;;;;;;;;;22.46;46.28;101890.88;7393311;19;1597;-40
2023/10/11 04:58:04;;;;;;;;;;;;;;;22.51;46.08;101903.97;7390370;19;2834;-41
2023/10/11 05:00:43;;;;;;;;;;;;;;;22.74;45.72;101896.59;7393320;19;1510;-43
2023/10/11 05:03:12;;;;;;;;;;;;;;;22.75;45.66;101906.41;7391286;19;1605;-43
2023/10/11 05:05:58;;;;;;;;;;;;;;;22.63;40.52;101898.38;7390632;19;1398;-43
2023/10/11 05:08:51;;;;;;;;;;;;;;;21.61;36.44;101900.59;7391759;19;1422;-43
2023/10/11 05:11:25;;;;;;;;;;;;;;;20.84;34.95;101903.16;7389149;19;2406;-43
2023/10/11 05:14:10;;;;;;;;;;;;;;;20.55;34.62;101906.25;7388921;19;1539;-42
2023/10/11 05:16:44;;;;;;;;;;;;;;;20.27;34.46;101897.59;7387796;19;1793;-41
2023/10/11 05:19:15;;;;;;;;;;;;;;;20.20;33.96;101919.66;7394652;19;1511;-41
2023/10/11 05:21:43;;;;;;;;;;;;;;;20.34;33.67;101913.25;7395478;19;1776;-41
2023/10/11 05:24:29;;;;;;;;;;;;;;;20.50;33.16;101919.16;7395918;19;1401;-41
2023/10/11 05:27:04;;;;;;;;;;;;;;;20.27;33.40;101929.84;7393481;19;1895;-41
2023/10/11 05:29:52;;;;;;;;;;;;;;;20.06;33.33;101932.28;7390635;19;1649;-41
2023/10/11 05:32:23;;;;;;;;;;;;;;;20.24;32.74;101930.06;7377337;19;1863;-46
2023/10/11 05:35:19;;;;;;;;;;;;;;;20.22;33.30;101931.16;7375333;19;1488;-47
2023/10/11 05:51:11;;;;;;;;;;;;;;;20.71;32.37;101951.66;7397465;19;1868;-46
2023/10/11 05:53:40;;;;;;;;;;;;;;;20.69;32.56;101963.47;7396524;19;1508;-46
2023/10/11 05:56:18;;;;;;;;;;;;;;;20.48;32.91;101965.94;7398909;19;1575;-46
2023/10/11 05:58:49;;;;;;;;;;;;;;;20.37;32.89;101966.72;7396599;19;1637;-46
2023/10/11 06:01:21;;;;;;;;;;;;;;;20.31;32.79;101978.78;7396564;19;1566;-46
2023/10/11 06:03:49;;;;;;;;;;;;;;;20.13;32.92;101964.06;7398801;19;1507;-46
2023/10/11 06:06:27;;;;;;;;;;;;;;;20.53;32.34;101980.75;7395287;19;1805;-46
2023/10/11 06:08:57;;;;;;;;;;;;;;;20.73;32.73;101989.13;7397545;19;1530;-46
2023/10/11 06:11:29;;;;;;;;;;;;;;;20.97;31.97;102000.72;7388056;19;1838;-46
2023/10/11 06:13:57;;;;;;;;;;;;;;;21.15;31.86;101994.84;7395915;19;1412;-46
2023/10/11 06:16:30;;;;;;;;;;;;;;;20.98;31.95;101993.50;7397356;19;1606;-46
2023/10/11 06:19:15;;;;;;;;;;;;;;;20.90;32.20;101991.38;7396810;19;1469;-47
2023/10/11 06:21:56;;;;;;;;;;;;;;;20.83;31.90;102006.28;7397624;19;1686;-46
2023/10/11 06:24:24;;;;;;;;;;;;;;;20.81;31.56;102011.78;7397545;19;1428;-47
2023/10/11 06:26:56;;;;;;;;;;;;;;;20.80;32.01;102022.66;7395396;19;1484;-46
2023/10/11 06:29:29;;;;;;;;;;;;;;;20.85;32.09;102026.72;7395068;19;1532;-45
2023/10/11 06:32:01;;;;;;;;;;;;;;;20.78;31.68;102022.75;7396742;19;1844;-45
2023/10/11 06:34:32;;;;;;;;;;;;;;;20.40;31.99;101993.38;7377040;19;2113;-43
2023/10/11 06:37:00;;;;;;;;;;;;;;;20.57;32.17;102027.91;7395610;19;1491;-42
2023/10/11 06:42:12;;;;;;;;;;;;;;;20.31;32.11;102013.72;7396354;19;1412;-42
2023/10/11 06:44:38;;;;;;;;;;;;;;;20.54;32.60;102016.53;7394535;19;1438;-42
2023/10/11 06:47:11;;;;;;;;;;;;;;;20.61;32.16;102025.84;7396366;19;1557;-41
2023/10/11 06:49:44;;;;;;;;;;;;;;;20.66;32.37;102035.28;7396412;19;1472;-42
2023/10/11 06:52:15;;;;;;;;;;;;;;;20.84;32.32;102040.25;7394482;19;1863;-42
2023/10/11 06:54:46;;;;;;;;;;;;;;;21.09;32.92;102033.00;7397849;19;1908;-42
2023/10/11 06:57:16;;;;;;;;;;;;;;;21.16;32.41;102029.72;7391272;19;1927;-42
2023/10/11 06:59:49;;;;;;;;;;;;;;;21.20;33.40;102033.88;7392835;19;1920;-42
2023/10/11 07:02:31;;;;;;;;;;;;;;;21.26;32.84;102035.22;7393402;19;1547;-42
2023/10/11 07:05:05;;;;;;;;;;;;;;;21.28;32.74;102033.28;7394691;19;1554;-41
2023/10/11 07:07:34;;;;;;;;;;;;;;;21.35;32.52;102033.69;7394025;19;1823;-41
2023/10/11 07:10:27;;;;;;;;;;;;;;;21.39;32.06;102030.63;7393673;19;1562;-41
2023/10/11 07:13:03;;;;;;;;;;;;;;;21.50;32.42;102037.00;7392894;19;1839;-41
2023/10/11 07:15:32;;;;;;;;;;;;;;;21.38;32.41;102034.28;7394049;19;1721;-41
2023/10/11 07:18:04;;;;;;;;;;;;;;;21.55;32.64;102024.06;7393517;19;1836;-41
2023/10/11 07:20:47;;;;;;;;;;;;;;;21.72;33.02;102026.25;7393359;19;1812;-41
2023/10/11 07:23:19;;;;;;;;;;;;;;;21.78;33.91;102020.38;7395077;19;1458;-41
2023/10/11 07:25:59;;;;;;;;;;;;;;;21.78;33.73;102036.53;7387005;19;1907;-41
2023/10/11 07:28:35;;;;;;;;;;;;;;;21.67;33.09;102031.16;7393179;19;1515;-41
2023/10/11 07:31:05;;;;;;;;;;;;;;;21.78;33.35;102028.44;7392726;19;1850;-43
2023/10/11 07:33:36;;;;;;;;;;;;;;;21.80;33.48;102029.16;7390045;19;1819;-41
2023/10/11 07:36:11;;;;;;;;;;;;;;;21.94;33.69;102037.97;7388170;19;1502;-42
2023/10/11 07:38:43;;;;;;;;;;;;;;;22.02;34.18;102036.41;7393551;19;1796;-41
2023/10/11 07:41:17;;;;;;;;;;;;;;;22.14;34.31;102026.44;7389225;19;1624;-41
2023/10/11 07:43:45;;;;;;;;;;;;;;;22.24;34.14;102035.53;7393562;19;1817;-41
2023/10/11 07:46:14;;;;;;;;;;;;;;;22.18;34.24;102038.69;7393061;19;1788;-41
2023/10/11 07:48:45;;;;;;;;;;;;;;;22.16;34.11;102043.34;7391541;19;1769;-41
2023/10/11 07:51:13;;;;;;;;;;;;;;;22.19;34.15;102026.94;7392233;19;1837;-41
2023/10/11 07:53:43;;;;;;;;;;;;;;;22.28;34.24;102038.81;7392479;19;1484;-41
2023/10/11 07:56:15;;;;;;;;;;;;;;;22.39;34.24;102038.78;7391518;19;1725;-41
2023/10/11 07:58:45;;;;;;;;;;;;;;;22.38;34.48;102038.91;7392603;19;1520;-41
2023/10/11 08:01:25;;;;;;;;;;;;;;;22.40;34.64;102039.63;7391533;19;1733;-41
2023/10/11 08:03:56;;;;;;;;;;;;;;;22.30;34.73;102036.84;7393092;19;1146;-41
2023/10/11 08:06:27;;;;;;;;;;;;;;;22.21;35.14;102043.81;7391946;19;1690;-41
2023/10/11 08:08:59;;;;;;;;;;;;;;;22.00;34.46;102024.00;7390910;19;1415;-42
2023/10/11 08:11:28;;;;;;;;;;;;;;;21.93;34.68;102041.69;7390938;19;1852;-41
2023/10/11 08:14:00;;;;;;;;;;;;;;;22.16;35.33;102042.47;7392429;19;1535;-43
2023/10/11 08:16:33;;;;;;;;;;;;;;;22.09;35.24;102046.69;7390240;19;1487;-43
2023/10/11 08:19:04;;;;;;;;;;;;;;;22.01;34.98;102052.69;7390776;19;1648;-42
2023/10/11 08:21:33;;;;;;;;;;;;;;;21.94;35.07;102037.97;7392321;19;1836;-43
2023/10/11 08:24:01;;;;;;;;;;;;;;;21.96;35.08;102030.63;7392750;19;1528;-43
2023/10/11 08:26:37;;;;;;;;;;;;;;;21.98;35.12;102042.13;7391384;19;1761;-43
2023/10/11 08:29:14;;;;;;;;;;;;;;;22.12;35.47;102043.72;7390696;19;1512;-43
2023/10/11 08:31:44;;;;;;;;;;;;;;;22.09;35.19;102038.59;7392098;19;1851;-43
2023/10/11 08:34:15;;;;;;;;;;;;;;;22.04;34.80;102028.16;7375459;19;1567;-43
2023/10/11 08:36:44;;;;;;;;;;;;;;;22.06;35.73;102031.59;7387711;19;1259;-43
2023/10/11 08:39:13;;;;;;;;;;;;;;;22.12;35.30;102019.47;7391591;19;1670;-43
2023/10/11 08:41:43;;;;;;;;;;;;;;;22.40;35.26;102031.53;7389816;19;1840;-43
2023/10/11 08:44:15;;;;;;;;;;;;;;;22.26;35.44;102018.38;7391262;19;1585;-41
2023/10/11 08:46:48;;;;;;;;;;;;;;;22.19;35.41;102032.31;7388399;19;1364;-41
2023/10/11 08:49:20;;;;;;;;;;;;;;;22.43;35.44;102026.75;7389913;19;1662;-41
2023/10/11 08:51:49;;;;;;;;;;;;;;;22.62;35.28;102020.72;7388529;19;1857;-42
2023/10/11 08:54:25;;;;;;;;;;;;;;;22.66;35.09;102020.44;7397865;19;1724;-41
2023/10/11 08:56:54;;;;;;;;;;;;;;;22.69;35.38;102010.25;7395827;19;1485;-41
2023/10/11 08:59:25;;;;;;;;;;;;;;;22.74;35.32;102013.41;7398217;19;1721;-41
2023/10/11 09:01:53;;;;;;;;;;;;;;;22.71;35.07;102012.81;7396923;19;1495;-42
2023/10/11 09:04:27;;;;;;;;;;;;;;;22.60;34.99;102017.28;7399984;19;1587;-41
2023/10/11 09:06:57;;;;;;;;;;;;;;;22.52;34.93;102011.69;7397540;19;1371;-43
2023/10/11 09:09:39;;;;;;;;;;;;;;;22.44;35.28;102008.75;7396546;19;2225;-42
2023/10/11 09:14:58;;;;;;;;;;;;;;;22.48;36.22;102007.50;7395761;19;1801;-43
2023/10/11 09:17:27;;;;;;;;;;;;;;;22.55;35.93;102003.31;7397384;19;1480;-44
2023/10/11 09:20:00;;;;;;;;;;;;;;;22.71;36.05;102002.03;7397159;19;1424;-43
2023/10/11 09:22:28;;;;;;;;;;;;;;;22.60;36.42;102011.88;7395852;19;1562;-41
2023/10/11 09:25:20;;;;;;;;;;;;;;;22.79;36.44;102011.16;7399231;19;1115;-42
2023/10/11 09:27:53;;;;;;;;;;;;;;;22.80;36.64;101995.84;7398753;19;1741;-41
2023/10/11 09:30:26;;;;;;;;;;;;;;;22.91;36.35;101993.09;7398439;19;1622;-41
2023/10/11 09:32:59;;;;;;;;;;;;;;;22.96;36.59;101996.25;7396865;19;1825;-41
2023/10/11 09:35:31;;;;;;;;;;;;;;;22.95;36.26;101994.53;7382624;19;1843;-43
2023/10/11 09:38:00;;;;;;;;;;;;;;;22.89;36.48;102002.31;7397975;19;1741;-43
2023/10/11 09:40:31;;;;;;;;;;;;;;;22.79;36.80;101997.69;7398258;19;1745;-41
2023/10/11 09:43:00;;;;;;;;;;;;;;;22.81;36.66;102000.25;7399650;19;1788;-41
2023/10/11 09:45:41;;;;;;;;;;;;;;;22.80;36.45;101991.31;7397989;19;1499;-42
2023/10/11 09:48:12;;;;;;;;;;;;;;;22.94;35.74;101984.75;7399147;19;1808;-46
2023/10/11 09:50:44;;;;;;;;;;;;;;;22.95;36.29;101983.75;7395783;19;1764;-41
2023/10/11 09:53:13;;;;;;;;;;;;;;;22.97;36.20;101979.06;7395394;19;1868;-41
2023/10/11 09:55:53;;;;;;;;;;;;;;;23.06;36.26;101977.47;7397010;19;1524;-41
2023/10/11 09:58:29;;;;;;;;;;;;;;;22.98;36.50;101966.47;7398930;19;1840;-41
2023/10/11 10:01:07;;;;;;;;;;;;;;;22.90;36.68;101975.22;7397086;19;1480;-41
2023/10/11 10:03:38;;;;;;;;;;;;;;;22.86;36.63;101965.69;7398740;19;1574;-41
2023/10/11 10:06:18;;;;;;;;;;;;;;;22.86;36.37;101959.41;7398767;19;1694;-41
2023/10/11 10:08:50;;;;;;;;;;;;;;;22.96;36.71;101969.28;7399015;19;1673;-41
2023/10/11 10:11:19;;;;;;;;;;;;;;;22.94;35.82;101960.47;7398117;19;1556;-41
2023/10/11 10:14:02;;;;;;;;;;;;;;;22.89;36.43;101965.41;7391369;19;2283;-41
2023/10/11 10:16:58;;;;;;;;;;;;;;;22.81;37.03;101943.63;7396372;19;1405;-41
2023/10/11 10:19:27;;;;;;;;;;;;;;;22.83;37.01;101941.66;7396880;19;1840;-41
2023/10/11 10:22:10;;;;;;;;;;;;;;;22.92;36.90;101935.47;7397258;19;1705;-41
2023/10/11 10:24:43;;;;;;;;;;;;;;;22.93;36.89;101934.47;7397721;19;1567;-41
2023/10/11 10:27:33;;;;;;;;;;;;;;;22.76;37.29;101938.63;7396368;19;1568;-41
2023/10/11 10:30:03;;;;;;;;;;;;;;;22.72;37.69;101939.88;7395796;19;1827;-41
2023/10/11 10:32:32;;;;;;;;;;;;;;;22.68;37.04;101932.19;7394441;19;1869;-43
2023/10/11 10:35:18;;;;;;;;;;;;;;;22.66;36.72;101929.63;7379470;19;1757;-43
2023/10/11 10:37:55;;;;;;;;;;;;;;;22.66;36.34;101924.25;7395293;19;1511;-43
2023/10/11 10:40:25;;;;;;;;;;;;;;;22.71;37.35;101931.94;7395918;19;2003;-42
2023/10/11 10:43:08;;;;;;;;;;;;;;;22.77;37.36;101916.06;7395689;19;1690;-41
2023/10/11 10:45:35;;;;;;;;;;;;;;;22.95;37.31;101921.69;7387326;19;1544;-41
2023/10/11 10:48:14;;;;;;;;;;;;;;;22.82;37.58;101921.09;7391563;19;1757;-41
2023/10/11 10:50:46;;;;;;;;;;;;;;;22.84;37.74;101921.81;7390793;19;1760;-41
2023/10/11 10:53:15;;;;;;;;;;;;;;;22.92;37.72;101919.28;7388512;19;1862;-41
2023/10/11 10:55:43;;;;;;;;;;;;;;;22.83;38.15;101912.84;7391211;19;1528;-41
2023/10/11 10:58:18;;;;;;;;;;;;;;;22.80;38.23;101918.50;7391855;19;1519;-42
2023/10/11 11:00:44;;;;;;;;;;;;;;;22.83;38.69;101909.28;7395723;19;1634;-42
2023/10/11 11:03:22;;;;;;;;;;;;;;;22.86;38.89;101903.63;7395289;19;1115;-41
2023/10/11 11:05:57;;;;;;;;;;;;;;;22.85;38.72;101907.31;7396132;19;1740;-41
2023/10/11 11:08:31;;;;;;;;;;;;;;;22.95;38.75;101916.31;7394430;19;1891;-40
2023/10/11 11:13:51;;;;;;;;;;;;;;;22.94;39.19;101898.44;7393203;19;2355;-41
2023/10/11 11:16:17;;;;;;;;;;;;;;;23.06;39.14;101892.97;7392210;19;1824;-41
2023/10/11 11:18:45;;;;;;;;;;;;;;;23.02;39.24;101898.63;7394157;19;1828;-41
2023/10/11 11:21:20;;;;;;;;;;;;;;;23.02;39.14;101897.78;7394968;19;1721;-41
2023/10/11 11:23:49;;;;;;;;;;;;;;;22.94;39.60;101901.13;7393760;19;1757;-41
2023/10/11 11:26:18;;;;;;;;;;;;;;;23.05;39.53;101902.06;7393612;19;1852;-41
2023/10/11 11:28:47;;;;;;;;;;;;;;;22.95;39.90;101886.63;7391360;19;1401;-43
2023/10/11 11:31:30;;;;;;;;;;;;;;;22.86;40.17;101895.56;7391207;19;1523;-43
2023/10/11 11:34:11;;;;;;;;;;;;;;;22.98;40.16;101891.78;7391307;19;1851;-43
2023/10/11 11:36:40;;;;;;;;;;;;;;;22.93;40.08;101893.16;7374989;19;1861;-43
2023/10/11 11:39:25;;;;;;;;;;;;;;;23.01;39.96;101878.00;7393282;19;1795;-42
2023/10/11 11:41:58;;;;;;;;;;;;;;;22.95;40.24;101886.63;7391846;19;1810;-41
2023/10/11 11:44:25;;;;;;;;;;;;;;;22.86;40.71;101882.06;7393371;19;1371;-40
2023/10/11 11:46:54;;;;;;;;;;;;;;;22.83;40.79;101887.72;7393325;19;1789;-43
2023/10/11 11:49:20;;;;;;;;;;;;;;;22.76;41.03;101881.13;7391701;19;1819;-43
2023/10/11 11:51:50;;;;;;;;;;;;;;;22.73;41.03;101874.16;7392759;19;1508;-43
2023/10/11 11:54:18;;;;;;;;;;;;;;;22.72;41.13;101879.69;7392434;19;1856;-43
2023/10/11 11:56:46;;;;;;;;;;;;;;;22.72;41.11;101868.91;7393428;19;1523;-43
2023/10/11 11:59:18;;;;;;;;;;;;;;;22.75;41.50;101884.81;7391763;19;1667;-43
2023/10/11 12:01:53;;;;;;;;;;;;;;;22.75;41.39;101877.59;7392667;19;1567;-41
2023/10/11 12:04:24;;;;;;;;;;;;;;;22.88;41.42;101874.69;7389522;19;1376;-42
2023/10/11 12:06:52;;;;;;;;;;;;;;;22.99;41.15;101874.59;7392275;19;1825;-41
2023/10/11 12:09:20;;;;;;;;;;;;;;;23.25;41.17;101868.75;7393367;19;1927;-41
2023/10/11 12:11:49;;;;;;;;;;;;;;;23.32;40.92;101859.13;7391705;19;1871;-41
2023/10/11 12:14:22;;;;;;;;;;;;;;;23.33;40.73;101868.06;7389965;19;1863;-41
2023/10/11 12:16:51;;;;;;;;;;;;;;;23.26;41.13;101875.88;7392785;19;1491;-44
2023/10/11 12:19:19;;;;;;;;;;;;;;;23.23;41.69;101870.75;7390716;19;1424;-41
2023/10/11 12:21:47;;;;;;;;;;;;;;;23.31;41.88;101862.81;7393547;19;1462;-41
2023/10/11 12:24:16;;;;;;;;;;;;;;;23.43;41.71;101852.75;7393890;19;1721;-42
2023/10/11 12:26:45;;;;;;;;;;;;;;;23.38;42.24;101857.72;7391511;19;1817;-43
2023/10/11 12:29:14;;;;;;;;;;;;;;;23.35;42.71;101853.44;7393670;19;1721;-42
2023/10/11 12:31:45;;;;;;;;;;;;;;;23.49;42.22;101856.75;7391118;19;1714;-43
2023/10/11 12:34:16;;;;;;;;;;;;;;;23.49;42.97;101856.75;7390321;19;1866;-43
2023/10/11 12:36:51;;;;;;;;;;;;;;;23.43;43.25;101847.34;7374297;19;1380;-42
2023/10/11 12:39:24;;;;;;;;;;;;;;;23.47;42.50;101847.94;7392405;19;1807;-41
2023/10/11 12:41:55;;;;;;;;;;;;;;;23.53;43.09;101831.19;7391461;19;1567;-41
2023/10/11 12:44:23;;;;;;;;;;;;;;;23.57;42.90;101832.59;7391111;19;1433;-42
2023/10/11 12:46:54;;;;;;;;;;;;;;;23.58;42.81;101828.94;7389356;19;1982;-42
2023/10/11 12:49:24;;;;;;;;;;;;;;;23.45;43.78;101833.72;7389405;19;1483;-42
2023/10/11 12:51:52;;;;;;;;;;;;;;;23.39;44.05;101832.44;7389279;19;1816;-42
2023/10/11 12:54:22;;;;;;;;;;;;;;;23.48;43.79;101838.88;7389395;19;1870;-42
2023/10/11 12:56:50;;;;;;;;;;;;;;;23.54;43.69;101833.75;7389225;19;1392;-42
2023/10/11 12:59:22;;;;;;;;;;;;;;;23.44;44.51;101832.88;7388338;19;1558;-41
2023/10/11 13:01:52;;;;;;;;;;;;;;;23.33;44.68;101839.22;7388992;19;1657;-41
2023/10/11 13:04:30;;;;;;;;;;;;;;;23.40;43.96;101826.06;7388435;19;1687;-41
2023/10/11 13:06:59;;;;;;;;;;;;;;;23.39;44.03;101825.19;7391013;19;1179;-41
2023/10/11 13:09:30;;;;;;;;;;;;;;;23.37;43.99;101827.16;7390574;19;1158;-41
2023/10/11 13:11:59;;;;;;;;;;;;;;;23.39;44.14;101825.19;7390912;19;1829;-41
2023/10/11 13:14:27;;;;;;;;;;;;;;;23.31;44.48;101825.03;7388977;19;1846;-41
2023/10/11 13:16:58;;;;;;;;;;;;;;;23.28;44.48;101822.63;7390439;19;1626;-41
2023/10/11 13:19:30;;;;;;;;;;;;;;;23.30;44.32;101835.94;7390473;19;1618;-41
2023/10/11 13:21:59;;;;;;;;;;;;;;;23.21;44.83;101816.06;7391027;19;1528;-41
2023/10/11 13:24:28;;;;;;;;;;;;;;;23.31;44.31;101814.22;7391161;19;1650;-41
2023/10/11 13:26:57;;;;;;;;;;;;;;;23.28;44.73;101821.75;7389345;19;1530;-41
2023/10/11 13:29:27;;;;;;;;;;;;;;;23.17;44.74;101810.06;7387187;19;2474;-41
2023/10/11 13:31:56;;;;;;;;;;;;;;;23.14;44.85;101812.19;7389999;19;1514;-43
2023/10/11 13:34:33;;;;;;;;;;;;;;;23.16;44.84;101818.31;7388567;19;1861;-43
2023/10/11 13:37:03;;;;;;;;;;;;;;;23.21;45.04;101813.34;7372665;19;1394;-43